Amiret, Minnesota
Current Conditions -  °F | °C
As of 1:53 AM on Friday 24 Oct 2014 (Local Time) from KTKC Reporting Station
Clear Clear  
Wind Chill: 56°   Ceiling: Unl
Heat Index: 56°   Visibility: 10mi
Dew Point: 45°   Wind: 13mph
Humidity: 67%   Direction: 200°SSW
Pressure: 29.9"   Gusts: NA
Location:  44.2253°N, 95.6512°W
Report Text: KTKC 240653Z AUTO 20011KT 10SM CLR 14/07 A2990 RMK AO2 T01350074
Loading
Personal Weather Stations






























Interactive Weather Map
Tropical Storm Tracking
New forecast layout! Learn more

10-Day Weather Forecast

Advertisements
Track Severe Weather on mobile